sensor_id;sensor_type;location;lat;lon;timestamp;P1;durP1;ratioP1;P2;durP2;ratioP2
11653;SDS011;5883;48.818;9.114;2023-12-28T00:00:44;2.50;;;2.20;;
11653;SDS011;5883;48.818;9.114;2023-12-28T00:03:29;4.57;;;2.63;;
11653;SDS011;5883;48.818;9.114;2023-12-28T00:06:14;5.10;;;2.42;;
11653;SDS011;5883;48.818;9.114;2023-12-28T00:09:00;7.60;;;2.70;;
11653;SDS011;5883;48.818;9.114;2023-12-28T00:11:45;4.82;;;3.40;;
11653;SDS011;5883;48.818;9.114;2023-12-28T00:14:31;5.53;;;3.17;;
11653;SDS011;5883;48.818;9.114;2023-12-28T00:17:16;2.38;;;2.10;;
11653;SDS011;5883;48.818;9.114;2023-12-28T00:20:01;3.58;;;2.50;;
11653;SDS011;5883;48.818;9.114;2023-12-28T00:22:46;3.58;;;2.45;;
11653;SDS011;5883;48.818;9.114;2023-12-28T00:25:31;3.20;;;2.15;;
11653;SDS011;5883;48.818;9.114;2023-12-28T00:28:16;5.35;;;2.60;;
11653;SDS011;5883;48.818;9.114;2023-12-28T00:31:03;2.85;;;2.08;;
11653;SDS011;5883;48.818;9.114;2023-12-28T00:33:48;4.03;;;2.28;;
11653;SDS011;5883;48.818;9.114;2023-12-28T00:36:33;2.75;;;2.13;;
11653;SDS011;5883;48.818;9.114;2023-12-28T00:39:18;3.17;;;2.13;;
11653;SDS011;5883;48.818;9.114;2023-12-28T00:42:03;4.15;;;2.47;;
11653;SDS011;5883;48.818;9.114;2023-12-28T00:44:49;2.60;;;2.08;;
11653;SDS011;5883;48.818;9.114;2023-12-28T00:47:35;2.42;;;1.98;;
11653;SDS011;5883;48.818;9.114;2023-12-28T00:50:20;3.55;;;2.03;;
11653;SDS011;5883;48.818;9.114;2023-12-28T00:53:05;2.40;;;1.75;;
11653;SDS011;5883;48.818;9.114;2023-12-28T00:55:50;3.22;;;1.77;;
11653;SDS011;5883;48.818;9.114;2023-12-28T00:58:38;2.97;;;1.80;;
11653;SDS011;5883;48.818;9.114;2023-12-28T01:01:23;3.83;;;1.88;;
11653;SDS011;5883;48.818;9.114;2023-12-28T01:04:09;2.33;;;2.00;;
11653;SDS011;5883;48.818;9.114;2023-12-28T01:06:54;2.65;;;2.10;;
11653;SDS011;5883;48.818;9.114;2023-12-28T01:09:39;5.78;;;2.00;;
11653;SDS011;5883;48.818;9.114;2023-12-28T01:12:24;3.70;;;2.03;;
11653;SDS011;5883;48.818;9.114;2023-12-28T01:15:09;1.92;;;1.75;;
11653;SDS011;5883;48.818;9.114;2023-12-28T01:17:55;3.95;;;1.80;;
11653;SDS011;5883;48.818;9.114;2023-12-28T01:20:41;2.38;;;1.92;;
11653;SDS011;5883;48.818;9.114;2023-12-28T01:23:26;2.92;;;1.88;;
11653;SDS011;5883;48.818;9.114;2023-12-28T01:26:12;2.08;;;1.77;;
11653;SDS011;5883;48.818;9.114;2023-12-28T01:28:57;2.38;;;1.70;;
11653;SDS011;5883;48.818;9.114;2023-12-28T01:31:42;2.47;;;1.95;;
11653;SDS011;5883;48.818;9.114;2023-12-28T01:34:27;1.95;;;1.75;;
11653;SDS011;5883;48.818;9.114;2023-12-28T01:37:13;1.85;;;1.75;;
11653;SDS011;5883;48.818;9.114;2023-12-28T01:39:58;3.15;;;1.88;;
11653;SDS011;5883;48.818;9.114;2023-12-28T01:42:43;2.38;;;2.00;;
11653;SDS011;5883;48.818;9.114;2023-12-28T01:45:29;3.13;;;2.13;;
11653;SDS011;5883;48.818;9.114;2023-12-28T01:48:14;2.50;;;2.30;;
11653;SDS011;5883;48.818;9.114;2023-12-28T01:51:00;2.20;;;1.98;;
11653;SDS011;5883;48.818;9.114;2023-12-28T01:53:46;2.40;;;1.83;;
11653;SDS011;5883;48.818;9.114;2023-12-28T01:56:32;3.13;;;1.80;;
11653;SDS011;5883;48.818;9.114;2023-12-28T01:59:17;1.92;;;1.70;;
11653;SDS011;5883;48.818;9.114;2023-12-28T02:02:03;2.20;;;2.00;;
11653;SDS011;5883;48.818;9.114;2023-12-28T02:04:48;2.25;;;1.90;;
11653;SDS011;5883;48.818;9.114;2023-12-28T02:07:33;2.22;;;1.73;;
11653;SDS011;5883;48.818;9.114;2023-12-28T02:10:22;2.83;;;2.10;;
11653;SDS011;5883;48.818;9.114;2023-12-28T02:13:07;2.67;;;2.10;;
11653;SDS011;5883;48.818;9.114;2023-12-28T02:15:54;1.75;;;1.60;;
11653;SDS011;5883;48.818;9.114;2023-12-28T02:18:41;2.42;;;1.88;;
11653;SDS011;5883;48.818;9.114;2023-12-28T02:21:27;2.72;;;1.77;;
11653;SDS011;5883;48.818;9.114;2023-12-28T02:24:13;2.13;;;1.80;;
11653;SDS011;5883;48.818;9.114;2023-12-28T02:26:59;1.98;;;1.67;;
11653;SDS011;5883;48.818;9.114;2023-12-28T02:29:44;2.63;;;1.73;;
11653;SDS011;5883;48.818;9.114;2023-12-28T02:32:33;3.17;;;2.03;;
11653;SDS011;5883;48.818;9.114;2023-12-28T02:35:22;2.83;;;1.58;;
11653;SDS011;5883;48.818;9.114;2023-12-28T02:38:08;2.65;;;1.88;;
11653;SDS011;5883;48.818;9.114;2023-12-28T02:40:54;2.83;;;1.75;;
11653;SDS011;5883;48.818;9.114;2023-12-28T02:43:40;1.73;;;1.60;;
11653;SDS011;5883;48.818;9.114;2023-12-28T02:46:25;1.67;;;1.50;;
11653;SDS011;5883;48.818;9.114;2023-12-28T02:49:10;3.10;;;1.75;;
11653;SDS011;5883;48.818;9.114;2023-12-28T02:51:55;4.63;;;2.05;;
11653;SDS011;5883;48.818;9.114;2023-12-28T02:54:40;2.53;;;1.60;;
11653;SDS011;5883;48.818;9.114;2023-12-28T02:57:25;1.92;;;1.60;;
11653;SDS011;5883;48.818;9.114;2023-12-28T03:00:12;2.70;;;1.75;;
11653;SDS011;5883;48.818;9.114;2023-12-28T03:02:57;1.63;;;1.50;;
11653;SDS011;5883;48.818;9.114;2023-12-28T03:05:42;2.08;;;1.88;;
11653;SDS011;5883;48.818;9.114;2023-12-28T03:08:27;2.40;;;1.70;;
11653;SDS011;5883;48.818;9.114;2023-12-28T03:11:12;2.42;;;1.83;;
11653;SDS011;5883;48.818;9.114;2023-12-28T03:13:57;1.77;;;1.67;;
11653;SDS011;5883;48.818;9.114;2023-12-28T03:16:44;2.33;;;1.55;;
11653;SDS011;5883;48.818;9.114;2023-12-28T03:19:29;3.22;;;1.80;;
11653;SDS011;5883;48.818;9.114;2023-12-28T03:22:15;1.80;;;1.60;;
11653;SDS011;5883;48.818;9.114;2023-12-28T03:25:00;1.55;;;1.45;;
11653;SDS011;5883;48.818;9.114;2023-12-28T03:27:46;2.80;;;1.80;;
11653;SDS011;5883;48.818;9.114;2023-12-28T03:30:31;2.65;;;1.60;;
11653;SDS011;5883;48.818;9.114;2023-12-28T03:33:17;1.67;;;1.55;;
11653;SDS011;5883;48.818;9.114;2023-12-28T03:36:02;2.88;;;1.70;;
11653;SDS011;5883;48.818;9.114;2023-12-28T03:38:47;2.58;;;1.85;;
11653;SDS011;5883;48.818;9.114;2023-12-28T03:41:32;1.85;;;1.70;;
11653;SDS011;5883;48.818;9.114;2023-12-28T03:44:17;1.95;;;1.77;;
11653;SDS011;5883;48.818;9.114;2023-12-28T03:47:02;2.17;;;1.45;;
11653;SDS011;5883;48.818;9.114;2023-12-28T03:49:48;2.53;;;1.75;;
11653;SDS011;5883;48.818;9.114;2023-12-28T03:52:33;3.45;;;1.90;;
11653;SDS011;5883;48.818;9.114;2023-12-28T03:55:18;2.58;;;1.90;;
11653;SDS011;5883;48.818;9.114;2023-12-28T03:58:03;2.80;;;1.70;;
11653;SDS011;5883;48.818;9.114;2023-12-28T04:00:48;2.30;;;1.60;;
11653;SDS011;5883;48.818;9.114;2023-12-28T04:03:33;1.83;;;1.60;;
11653;SDS011;5883;48.818;9.114;2023-12-28T04:06:19;3.25;;;2.15;;
11653;SDS011;5883;48.818;9.114;2023-12-28T04:09:04;1.50;;;1.40;;
11653;SDS011;5883;48.818;9.114;2023-12-28T04:11:49;1.70;;;1.60;;
11653;SDS011;5883;48.818;9.114;2023-12-28T04:14:34;2.33;;;1.67;;
11653;SDS011;5883;48.818;9.114;2023-12-28T04:17:19;2.15;;;1.50;;
11653;SDS011;5883;48.818;9.114;2023-12-28T04:20:06;2.42;;;1.80;;
11653;SDS011;5883;48.818;9.114;2023-12-28T04:22:53;1.55;;;1.45;;
11653;SDS011;5883;48.818;9.114;2023-12-28T04:25:37;2.17;;;1.98;;
11653;SDS011;5883;48.818;9.114;2023-12-28T04:28:22;2.72;;;1.88;;
11653;SDS011;5883;48.818;9.114;2023-12-28T04:31:07;1.83;;;1.60;;
11653;SDS011;5883;48.818;9.114;2023-12-28T04:33:52;3.17;;;1.85;;
11653;SDS011;5883;48.818;9.114;2023-12-28T04:36:39;2.97;;;1.67;;
11653;SDS011;5883;48.818;9.114;2023-12-28T04:39:25;2.47;;;1.85;;
11653;SDS011;5883;48.818;9.114;2023-12-28T04:42:10;2.63;;;1.70;;
11653;SDS011;5883;48.818;9.114;2023-12-28T04:44:55;3.03;;;1.70;;
11653;SDS011;5883;48.818;9.114;2023-12-28T04:47:40;3.38;;;2.00;;
11653;SDS011;5883;48.818;9.114;2023-12-28T04:50:25;2.17;;;1.70;;
11653;SDS011;5883;48.818;9.114;2023-12-28T04:53:10;3.28;;;1.80;;
11653;SDS011;5883;48.818;9.114;2023-12-28T04:55:56;5.68;;;2.03;;
11653;SDS011;5883;48.818;9.114;2023-12-28T04:58:41;2.17;;;1.90;;
11653;SDS011;5883;48.818;9.114;2023-12-28T05:01:26;2.80;;;1.92;;
11653;SDS011;5883;48.818;9.114;2023-12-28T05:04:15;1.90;;;1.63;;
11653;SDS011;5883;48.818;9.114;2023-12-28T05:06:59;2.28;;;1.90;;
11653;SDS011;5883;48.818;9.114;2023-12-28T05:09:44;2.35;;;1.80;;
11653;SDS011;5883;48.818;9.114;2023-12-28T05:12:31;1.90;;;1.63;;
11653;SDS011;5883;48.818;9.114;2023-12-28T05:15:16;2.55;;;1.60;;
11653;SDS011;5883;48.818;9.114;2023-12-28T05:18:01;2.53;;;1.58;;
11653;SDS011;5883;48.818;9.114;2023-12-28T05:20:47;3.13;;;1.60;;
11653;SDS011;5883;48.818;9.114;2023-12-28T05:23:32;2.88;;;1.80;;
11653;SDS011;5883;48.818;9.114;2023-12-28T05:26:17;2.58;;;1.80;;
11653;SDS011;5883;48.818;9.114;2023-12-28T05:29:03;2.15;;;1.80;;
11653;SDS011;5883;48.818;9.114;2023-12-28T05:31:48;2.25;;;1.60;;
11653;SDS011;5883;48.818;9.114;2023-12-28T05:34:33;4.00;;;1.60;;
11653;SDS011;5883;48.818;9.114;2023-12-28T05:37:18;3.42;;;1.70;;
11653;SDS011;5883;48.818;9.114;2023-12-28T05:40:03;2.03;;;1.58;;
11653;SDS011;5883;48.818;9.114;2023-12-28T05:42:48;3.50;;;1.65;;
11653;SDS011;5883;48.818;9.114;2023-12-28T05:45:35;2.35;;;1.50;;
11653;SDS011;5883;48.818;9.114;2023-12-28T05:48:19;2.00;;;1.70;;
11653;SDS011;5883;48.818;9.114;2023-12-28T05:51:04;2.33;;;1.70;;
11653;SDS011;5883;48.818;9.114;2023-12-28T05:53:49;1.92;;;1.65;;
11653;SDS011;5883;48.818;9.114;2023-12-28T05:56:35;2.05;;;1.52;;
11653;SDS011;5883;48.818;9.114;2023-12-28T05:59:20;1.60;;;1.30;;
11653;SDS011;5883;48.818;9.114;2023-12-28T06:02:07;3.13;;;1.80;;
11653;SDS011;5883;48.818;9.114;2023-12-28T06:04:52;1.67;;;1.40;;
11653;SDS011;5883;48.818;9.114;2023-12-28T06:07:37;1.98;;;1.42;;
11653;SDS011;5883;48.818;9.114;2023-12-28T06:10:22;2.05;;;1.40;;
11653;SDS011;5883;48.818;9.114;2023-12-28T06:13:08;2.67;;;1.33;;
11653;SDS011;5883;48.818;9.114;2023-12-28T06:15:52;1.60;;;1.50;;
11653;SDS011;5883;48.818;9.114;2023-12-28T06:18:39;1.92;;;1.67;;
11653;SDS011;5883;48.818;9.114;2023-12-28T06:21:24;2.35;;;1.73;;
11653;SDS011;5883;48.818;9.114;2023-12-28T06:24:09;2.40;;;1.73;;
11653;SDS011;5883;48.818;9.114;2023-12-28T06:26:53;1.55;;;1.38;;
11653;SDS011;5883;48.818;9.114;2023-12-28T06:29:38;1.98;;;1.65;;
11653;SDS011;5883;48.818;9.114;2023-12-28T06:32:24;1.90;;;1.50;;
11653;SDS011;5883;48.818;9.114;2023-12-28T06:35:10;1.70;;;1.52;;
11653;SDS011;5883;48.818;9.114;2023-12-28T06:37:55;2.40;;;1.50;;
11653;SDS011;5883;48.818;9.114;2023-12-28T06:40:40;2.05;;;1.77;;
11653;SDS011;5883;48.818;9.114;2023-12-28T06:43:25;1.50;;;1.25;;
11653;SDS011;5883;48.818;9.114;2023-12-28T06:46:09;2.33;;;1.65;;
11653;SDS011;5883;48.818;9.114;2023-12-28T06:48:54;1.90;;;1.58;;
11653;SDS011;5883;48.818;9.114;2023-12-28T06:51:43;3.80;;;1.73;;
11653;SDS011;5883;48.818;9.114;2023-12-28T06:54:29;3.05;;;1.70;;
11653;SDS011;5883;48.818;9.114;2023-12-28T06:57:14;3.30;;;1.65;;
11653;SDS011;5883;48.818;9.114;2023-12-28T06:59:59;2.85;;;1.80;;
11653;SDS011;5883;48.818;9.114;2023-12-28T07:02:46;2.47;;;1.50;;
11653;SDS011;5883;48.818;9.114;2023-12-28T07:05:31;3.00;;;1.75;;
11653;SDS011;5883;48.818;9.114;2023-12-28T07:08:17;3.78;;;2.03;;
11653;SDS011;5883;48.818;9.114;2023-12-28T07:11:02;2.67;;;1.83;;
11653;SDS011;5883;48.818;9.114;2023-12-28T07:13:48;3.17;;;1.63;;
11653;SDS011;5883;48.818;9.114;2023-12-28T07:16:33;2.13;;;1.60;;
11653;SDS011;5883;48.818;9.114;2023-12-28T07:19:18;1.60;;;1.45;;
11653;SDS011;5883;48.818;9.114;2023-12-28T07:22:03;2.72;;;1.70;;
11653;SDS011;5883;48.818;9.114;2023-12-28T07:24:49;2.15;;;1.90;;
11653;SDS011;5883;48.818;9.114;2023-12-28T07:27:34;2.65;;;1.92;;
11653;SDS011;5883;48.818;9.114;2023-12-28T07:30:20;2.63;;;1.80;;
11653;SDS011;5883;48.818;9.114;2023-12-28T07:33:05;2.15;;;1.70;;
11653;SDS011;5883;48.818;9.114;2023-12-28T07:35:50;2.72;;;1.60;;
11653;SDS011;5883;48.818;9.114;2023-12-28T07:38:35;2.28;;;1.70;;
11653;SDS011;5883;48.818;9.114;2023-12-28T07:41:23;4.47;;;1.92;;
11653;SDS011;5883;48.818;9.114;2023-12-28T07:44:08;2.50;;;1.75;;
11653;SDS011;5883;48.818;9.114;2023-12-28T07:46:53;3.25;;;1.60;;
11653;SDS011;5883;48.818;9.114;2023-12-28T07:49:38;2.80;;;2.05;;
11653;SDS011;5883;48.818;9.114;2023-12-28T07:52:23;1.73;;;1.63;;
11653;SDS011;5883;48.818;9.114;2023-12-28T07:55:08;4.35;;;1.80;;
11653;SDS011;5883;48.818;9.114;2023-12-28T07:57:55;3.33;;;1.83;;
11653;SDS011;5883;48.818;9.114;2023-12-28T08:00:40;1.42;;;1.33;;
11653;SDS011;5883;48.818;9.114;2023-12-28T08:03:24;2.47;;;1.95;;
11653;SDS011;5883;48.818;9.114;2023-12-28T08:06:09;3.25;;;1.67;;
11653;SDS011;5883;48.818;9.114;2023-12-28T08:08:56;1.40;;;1.20;;
11653;SDS011;5883;48.818;9.114;2023-12-28T08:11:42;2.30;;;1.60;;
11653;SDS011;5883;48.818;9.114;2023-12-28T08:14:29;2.05;;;1.60;;
11653;SDS011;5883;48.818;9.114;2023-12-28T08:17:15;3.90;;;1.60;;
11653;SDS011;5883;48.818;9.114;2023-12-28T08:20:00;2.10;;;1.70;;
11653;SDS011;5883;48.818;9.114;2023-12-28T08:22:44;1.95;;;1.65;;
11653;SDS011;5883;48.818;9.114;2023-12-28T08:25:29;2.70;;;1.95;;
11653;SDS011;5883;48.818;9.114;2023-12-28T08:28:14;2.15;;;1.95;;
11653;SDS011;5883;48.818;9.114;2023-12-28T08:31:02;3.28;;;1.90;;
11653;SDS011;5883;48.818;9.114;2023-12-28T08:33:47;2.47;;;1.90;;
11653;SDS011;5883;48.818;9.114;2023-12-28T08:36:32;1.88;;;1.70;;
11653;SDS011;5883;48.818;9.114;2023-12-28T08:39:17;2.28;;;1.80;;
11653;SDS011;5883;48.818;9.114;2023-12-28T08:42:02;2.95;;;2.00;;
11653;SDS011;5883;48.818;9.114;2023-12-28T08:44:47;1.95;;;1.77;;
11653;SDS011;5883;48.818;9.114;2023-12-28T08:47:33;2.20;;;2.00;;
11653;SDS011;5883;48.818;9.114;2023-12-28T08:50:18;2.50;;;2.10;;
11653;SDS011;5883;48.818;9.114;2023-12-28T08:53:04;2.30;;;1.98;;
11653;SDS011;5883;48.818;9.114;2023-12-28T08:55:49;2.30;;;2.00;;
11653;SDS011;5883;48.818;9.114;2023-12-28T08:58:34;2.95;;;2.45;;
11653;SDS011;5883;48.818;9.114;2023-12-28T09:01:19;3.05;;;2.13;;
11653;SDS011;5883;48.818;9.114;2023-12-28T09:04:06;2.70;;;2.20;;
11653;SDS011;5883;48.818;9.114;2023-12-28T09:06:51;3.47;;;2.28;;
11653;SDS011;5883;48.818;9.114;2023-12-28T09:09:37;2.67;;;2.10;;
11653;SDS011;5883;48.818;9.114;2023-12-28T09:12:22;3.97;;;2.20;;
11653;SDS011;5883;48.818;9.114;2023-12-28T09:15:07;2.75;;;2.20;;
11653;SDS011;5883;48.818;9.114;2023-12-28T09:17:52;4.60;;;2.20;;
11653;SDS011;5883;48.818;9.114;2023-12-28T09:20:38;8.65;;;2.65;;
11653;SDS011;5883;48.818;9.114;2023-12-28T09:23:23;3.72;;;2.28;;
11653;SDS011;5883;48.818;9.114;2023-12-28T09:26:08;5.95;;;2.70;;
11653;SDS011;5883;48.818;9.114;2023-12-28T09:28:53;3.92;;;2.65;;
11653;SDS011;5883;48.818;9.114;2023-12-28T09:34:23;2.00;;;1.80;;
11653;SDS011;5883;48.818;9.114;2023-12-28T09:37:09;2.20;;;2.00;;
11653;SDS011;5883;48.818;9.114;2023-12-28T09:39:54;1.95;;;1.75;;
11653;SDS011;5883;48.818;9.114;2023-12-28T09:42:40;4.22;;;1.80;;
11653;SDS011;5883;48.818;9.114;2023-12-28T09:45:28;2.58;;;2.00;;
11653;SDS011;5883;48.818;9.114;2023-12-28T09:48:14;2.13;;;1.75;;
11653;SDS011;5883;48.818;9.114;2023-12-28T09:51:00;4.70;;;2.72;;
11653;SDS011;5883;48.818;9.114;2023-12-28T09:53:47;3.88;;;1.50;;
11653;SDS011;5883;48.818;9.114;2023-12-28T09:56:32;3.60;;;1.88;;
11653;SDS011;5883;48.818;9.114;2023-12-28T09:59:18;3.28;;;1.50;;
11653;SDS011;5883;48.818;9.114;2023-12-28T10:02:04;2.60;;;1.92;;
11653;SDS011;5883;48.818;9.114;2023-12-28T10:04:49;2.72;;;1.65;;
11653;SDS011;5883;48.818;9.114;2023-12-28T10:07:39;3.05;;;1.75;;
11653;SDS011;5883;48.818;9.114;2023-12-28T10:10:26;2.17;;;1.63;;
11653;SDS011;5883;48.818;9.114;2023-12-28T10:13:10;2.55;;;1.75;;
11653;SDS011;5883;48.818;9.114;2023-12-28T10:15:56;1.85;;;1.40;;
11653;SDS011;5883;48.818;9.114;2023-12-28T10:18:41;2.80;;;1.65;;
11653;SDS011;5883;48.818;9.114;2023-12-28T10:21:27;6.55;;;1.60;;
11653;SDS011;5883;48.818;9.114;2023-12-28T10:24:12;1.63;;;1.52;;
11653;SDS011;5883;48.818;9.114;2023-12-28T10:26:58;1.55;;;1.40;;
11653;SDS011;5883;48.818;9.114;2023-12-28T10:29:44;1.75;;;1.50;;
11653;SDS011;5883;48.818;9.114;2023-12-28T10:32:29;1.75;;;1.50;;
11653;SDS011;5883;48.818;9.114;2023-12-28T10:35:14;2.55;;;1.60;;
11653;SDS011;5883;48.818;9.114;2023-12-28T10:37:59;6.47;;;2.13;;
11653;SDS011;5883;48.818;9.114;2023-12-28T10:40:46;2.80;;;1.80;;
11653;SDS011;5883;48.818;9.114;2023-12-28T10:43:35;1.75;;;1.58;;
11653;SDS011;5883;48.818;9.114;2023-12-28T10:46:24;2.55;;;1.60;;
11653;SDS011;5883;48.818;9.114;2023-12-28T10:49:11;1.85;;;1.30;;
11653;SDS011;5883;48.818;9.114;2023-12-28T10:51:56;1.58;;;1.48;;
11653;SDS011;5883;48.818;9.114;2023-12-28T10:54:44;1.60;;;1.42;;
11653;SDS011;5883;48.818;9.114;2023-12-28T10:57:32;1.73;;;1.45;;
11653;SDS011;5883;48.818;9.114;2023-12-28T11:00:20;1.60;;;1.40;;
11653;SDS011;5883;48.818;9.114;2023-12-28T11:03:08;1.63;;;1.42;;
11653;SDS011;5883;48.818;9.114;2023-12-28T11:05:53;1.52;;;1.23;;
11653;SDS011;5883;48.818;9.114;2023-12-28T11:08:40;3.58;;;1.60;;
11653;SDS011;5883;48.818;9.114;2023-12-28T11:11:26;1.70;;;1.55;;
11653;SDS011;5883;48.818;9.114;2023-12-28T11:14:11;1.60;;;1.50;;
11653;SDS011;5883;48.818;9.114;2023-12-28T11:16:58;1.50;;;1.40;;
11653;SDS011;5883;48.818;9.114;2023-12-28T11:19:44;2.25;;;1.30;;
11653;SDS011;5883;48.818;9.114;2023-12-28T11:22:29;1.60;;;1.25;;
11653;SDS011;5883;48.818;9.114;2023-12-28T11:25:15;4.10;;;1.50;;
11653;SDS011;5883;48.818;9.114;2023-12-28T11:28:08;1.88;;;1.20;;
11653;SDS011;5883;48.818;9.114;2023-12-28T11:30:53;1.35;;;1.25;;
11653;SDS011;5883;48.818;9.114;2023-12-28T11:33:44;2.53;;;1.48;;
11653;SDS011;5883;48.818;9.114;2023-12-28T11:36:32;1.95;;;1.23;;
11653;SDS011;5883;48.818;9.114;2023-12-28T11:39:19;2.97;;;1.40;;
11653;SDS011;5883;48.818;9.114;2023-12-28T11:42:05;2.42;;;1.40;;
11653;SDS011;5883;48.818;9.114;2023-12-28T11:44:53;1.88;;;1.30;;
11653;SDS011;5883;48.818;9.114;2023-12-28T11:47:38;1.55;;;1.42;;
11653;SDS011;5883;48.818;9.114;2023-12-28T11:50:24;3.55;;;1.48;;
11653;SDS011;5883;48.818;9.114;2023-12-28T11:53:11;1.42;;;1.23;;
11653;SDS011;5883;48.818;9.114;2023-12-28T11:56:00;1.92;;;1.40;;
11653;SDS011;5883;48.818;9.114;2023-12-28T11:58:46;1.45;;;1.30;;
11653;SDS011;5883;48.818;9.114;2023-12-28T12:01:31;1.58;;;1.40;;
11653;SDS011;5883;48.818;9.114;2023-12-28T12:04:16;2.10;;;1.20;;
11653;SDS011;5883;48.818;9.114;2023-12-28T12:07:03;2.10;;;1.70;;
11653;SDS011;5883;48.818;9.114;2023-12-28T12:09:49;2.05;;;1.70;;
11653;SDS011;5883;48.818;9.114;2023-12-28T12:12:34;1.77;;;1.50;;
11653;SDS011;5883;48.818;9.114;2023-12-28T12:15:19;2.63;;;1.50;;
11653;SDS011;5883;48.818;9.114;2023-12-28T12:18:04;1.67;;;1.50;;
11653;SDS011;5883;48.818;9.114;2023-12-28T12:20:49;2.10;;;1.30;;
11653;SDS011;5883;48.818;9.114;2023-12-28T12:23:35;1.58;;;1.33;;
11653;SDS011;5883;48.818;9.114;2023-12-28T12:26:20;1.40;;;1.30;;
11653;SDS011;5883;48.818;9.114;2023-12-28T12:29:05;1.40;;;1.30;;
11653;SDS011;5883;48.818;9.114;2023-12-28T12:31:51;2.65;;;1.52;;
11653;SDS011;5883;48.818;9.114;2023-12-28T12:34:36;1.70;;;1.60;;
11653;SDS011;5883;48.818;9.114;2023-12-28T12:37:22;3.35;;;1.70;;
11653;SDS011;5883;48.818;9.114;2023-12-28T12:40:09;1.65;;;1.52;;
11653;SDS011;5883;48.818;9.114;2023-12-28T12:42:55;2.55;;;1.75;;
11653;SDS011;5883;48.818;9.114;2023-12-28T12:45:40;2.05;;;1.65;;
11653;SDS011;5883;48.818;9.114;2023-12-28T12:48:28;3.08;;;1.65;;
11653;SDS011;5883;48.818;9.114;2023-12-28T12:51:13;1.88;;;1.73;;
11653;SDS011;5883;48.818;9.114;2023-12-28T12:53:58;2.97;;;1.58;;
11653;SDS011;5883;48.818;9.114;2023-12-28T12:56:45;2.88;;;1.58;;
11653;SDS011;5883;48.818;9.114;2023-12-28T12:59:30;1.63;;;1.23;;
11653;SDS011;5883;48.818;9.114;2023-12-28T13:02:15;1.65;;;1.50;;
11653;SDS011;5883;48.818;9.114;2023-12-28T13:05:00;3.30;;;1.48;;
11653;SDS011;5883;48.818;9.114;2023-12-28T13:07:45;2.53;;;1.88;;
11653;SDS011;5883;48.818;9.114;2023-12-28T13:10:30;1.85;;;1.60;;
11653;SDS011;5883;48.818;9.114;2023-12-28T13:13:17;2.03;;;1.73;;
11653;SDS011;5883;48.818;9.114;2023-12-28T13:16:02;2.10;;;1.63;;
11653;SDS011;5883;48.818;9.114;2023-12-28T13:18:47;1.88;;;1.77;;
11653;SDS011;5883;48.818;9.114;2023-12-28T13:21:32;4.30;;;1.90;;
11653;SDS011;5883;48.818;9.114;2023-12-28T13:24:17;1.95;;;1.67;;
11653;SDS011;5883;48.818;9.114;2023-12-28T13:27:02;2.97;;;1.50;;
11653;SDS011;5883;48.818;9.114;2023-12-28T13:29:49;1.77;;;1.58;;
11653;SDS011;5883;48.818;9.114;2023-12-28T13:32:34;1.52;;;1.30;;
11653;SDS011;5883;48.818;9.114;2023-12-28T13:35:19;2.45;;;1.30;;
11653;SDS011;5883;48.818;9.114;2023-12-28T13:38:04;1.60;;;1.40;;
11653;SDS011;5883;48.818;9.114;2023-12-28T13:40:49;4.18;;;1.85;;
11653;SDS011;5883;48.818;9.114;2023-12-28T13:43:34;3.15;;;1.40;;
11653;SDS011;5883;48.818;9.114;2023-12-28T13:46:21;3.58;;;1.67;;
11653;SDS011;5883;48.818;9.114;2023-12-28T13:49:06;2.72;;;1.25;;
11653;SDS011;5883;48.818;9.114;2023-12-28T13:51:51;1.73;;;1.50;;
11653;SDS011;5883;48.818;9.114;2023-12-28T13:54:36;1.30;;;1.20;;
11653;SDS011;5883;48.818;9.114;2023-12-28T13:57:20;3.53;;;1.42;;
11653;SDS011;5883;48.818;9.114;2023-12-28T14:00:06;1.50;;;1.40;;
11653;SDS011;5883;48.818;9.114;2023-12-28T14:02:53;2.78;;;1.73;;
11653;SDS011;5883;48.818;9.114;2023-12-28T14:05:38;2.20;;;1.60;;
11653;SDS011;5883;48.818;9.114;2023-12-28T14:08:23;2.80;;;1.48;;
11653;SDS011;5883;48.818;9.114;2023-12-28T14:11:08;2.95;;;1.73;;
11653;SDS011;5883;48.818;9.114;2023-12-28T14:13:53;2.28;;;1.80;;
11653;SDS011;5883;48.818;9.114;2023-12-28T14:16:38;2.08;;;1.88;;
11653;SDS011;5883;48.818;9.114;2023-12-28T14:19:25;2.03;;;1.83;;
11653;SDS011;5883;48.818;9.114;2023-12-28T14:22:10;1.60;;;1.50;;
11653;SDS011;5883;48.818;9.114;2023-12-28T14:24:55;3.47;;;2.10;;
11653;SDS011;5883;48.818;9.114;2023-12-28T14:27:41;2.45;;;1.95;;
11653;SDS011;5883;48.818;9.114;2023-12-28T14:30:27;2.05;;;1.48;;
11653;SDS011;5883;48.818;9.114;2023-12-28T14:33:13;1.65;;;1.55;;
11653;SDS011;5883;48.818;9.114;2023-12-28T14:36:00;1.95;;;1.50;;
11653;SDS011;5883;48.818;9.114;2023-12-28T14:38:46;2.22;;;1.60;;
11653;SDS011;5883;48.818;9.114;2023-12-28T14:41:31;1.50;;;1.40;;
11653;SDS011;5883;48.818;9.114;2023-12-28T14:44:16;1.80;;;1.42;;
11653;SDS011;5883;48.818;9.114;2023-12-28T14:47:01;1.63;;;1.42;;
11653;SDS011;5883;48.818;9.114;2023-12-28T14:49:47;2.85;;;1.67;;
11653;SDS011;5883;48.818;9.114;2023-12-28T14:52:33;1.83;;;1.60;;
11653;SDS011;5883;48.818;9.114;2023-12-28T14:55:18;4.38;;;2.53;;
11653;SDS011;5883;48.818;9.114;2023-12-28T14:58:06;2.22;;;1.63;;
11653;SDS011;5883;48.818;9.114;2023-12-28T15:00:51;1.95;;;1.70;;
11653;SDS011;5883;48.818;9.114;2023-12-28T15:03:38;2.25;;;1.90;;
11653;SDS011;5883;48.818;9.114;2023-12-28T15:06:23;1.85;;;1.63;;
11653;SDS011;5883;48.818;9.114;2023-12-28T15:09:09;2.33;;;2.00;;
11653;SDS011;5883;48.818;9.114;2023-12-28T15:11:55;3.80;;;2.45;;
11653;SDS011;5883;48.818;9.114;2023-12-28T15:14:40;1.73;;;1.60;;
11653;SDS011;5883;48.818;9.114;2023-12-28T15:17:25;1.65;;;1.45;;
11653;SDS011;5883;48.818;9.114;2023-12-28T15:20:11;4.15;;;2.08;;
11653;SDS011;5883;48.818;9.114;2023-12-28T15:22:57;2.38;;;1.70;;
11653;SDS011;5883;48.818;9.114;2023-12-28T15:25:43;2.80;;;1.92;;
11653;SDS011;5883;48.818;9.114;2023-12-28T15:28:28;2.03;;;1.83;;
11653;SDS011;5883;48.818;9.114;2023-12-28T15:31:14;3.80;;;2.25;;
11653;SDS011;5883;48.818;9.114;2023-12-28T15:33:59;2.05;;;1.75;;
11653;SDS011;5883;48.818;9.114;2023-12-28T15:36:44;3.55;;;2.03;;
11653;SDS011;5883;48.818;9.114;2023-12-28T15:39:29;2.78;;;2.30;;
11653;SDS011;5883;48.818;9.114;2023-12-28T15:42:16;3.35;;;2.28;;
11653;SDS011;5883;48.818;9.114;2023-12-28T15:45:01;3.15;;;2.05;;
11653;SDS011;5883;48.818;9.114;2023-12-28T15:47:46;1.92;;;1.77;;
11653;SDS011;5883;48.818;9.114;2023-12-28T15:50:31;3.63;;;2.22;;
11653;SDS011;5883;48.818;9.114;2023-12-28T15:53:16;2.25;;;2.05;;
11653;SDS011;5883;48.818;9.114;2023-12-28T15:56:01;2.67;;;2.33;;
11653;SDS011;5883;48.818;9.114;2023-12-28T15:58:48;2.15;;;1.95;;
11653;SDS011;5883;48.818;9.114;2023-12-28T16:01:33;2.75;;;1.88;;
11653;SDS011;5883;48.818;9.114;2023-12-28T16:04:18;3.00;;;2.22;;
11653;SDS011;5883;48.818;9.114;2023-12-28T16:07:03;2.75;;;2.20;;
11653;SDS011;5883;48.818;9.114;2023-12-28T16:09:48;3.22;;;2.08;;
11653;SDS011;5883;48.818;9.114;2023-12-28T16:12:33;2.70;;;2.03;;
11653;SDS011;5883;48.818;9.114;2023-12-28T16:15:20;4.40;;;3.17;;
11653;SDS011;5883;48.818;9.114;2023-12-28T16:18:05;6.93;;;3.60;;
11653;SDS011;5883;48.818;9.114;2023-12-28T16:20:51;4.03;;;2.65;;
11653;SDS011;5883;48.818;9.114;2023-12-28T16:23:36;3.30;;;2.03;;
11653;SDS011;5883;48.818;9.114;2023-12-28T16:26:22;2.95;;;2.30;;
11653;SDS011;5883;48.818;9.114;2023-12-28T16:29:06;2.30;;;2.10;;
11653;SDS011;5883;48.818;9.114;2023-12-28T16:31:53;2.53;;;2.30;;
11653;SDS011;5883;48.818;9.114;2023-12-28T16:34:40;2.70;;;2.33;;
11653;SDS011;5883;48.818;9.114;2023-12-28T16:37:25;4.25;;;1.98;;
11653;SDS011;5883;48.818;9.114;2023-12-28T16:40:10;2.20;;;2.00;;
11653;SDS011;5883;48.818;9.114;2023-12-28T16:42:55;3.35;;;1.95;;
11653;SDS011;5883;48.818;9.114;2023-12-28T16:45:40;2.58;;;2.10;;
11653;SDS011;5883;48.818;9.114;2023-12-28T16:48:27;3.65;;;2.65;;
11653;SDS011;5883;48.818;9.114;2023-12-28T16:51:12;2.60;;;2.10;;
11653;SDS011;5883;48.818;9.114;2023-12-28T16:53:58;3.03;;;2.08;;